createdAt,value
2018-12-09T00:00:14.511Z,98582.00
2018-12-09T00:02:42.772Z,98552.00
2018-12-09T00:05:11.705Z,98545.00
2018-12-09T00:07:40.133Z,98572.00
2018-12-09T00:10:08.996Z,98565.00
2018-12-09T00:12:37.490Z,98573.00
2018-12-09T00:15:06.045Z,98580.00
2018-12-09T00:17:34.669Z,98571.00
2018-12-09T00:20:03.024Z,98553.00
2018-12-09T00:22:31.418Z,98578.00
2018-12-09T00:25:00.843Z,98575.00
2018-12-09T00:27:29.062Z,98554.00
2018-12-09T00:29:57.528Z,98539.00
2018-12-09T00:32:26.078Z,98536.00
2018-12-09T00:34:54.412Z,98537.00
2018-12-09T00:37:23.569Z,98559.00
2018-12-09T00:39:51.998Z,98546.00
2018-12-09T00:42:20.504Z,98540.00
2018-12-09T00:44:48.820Z,98521.00
2018-12-09T00:47:17.314Z,98528.00
2018-12-09T00:49:45.613Z,98514.00
2018-12-09T00:52:13.873Z,98522.00
2018-12-09T00:54:42.295Z,98531.00
2018-12-09T00:57:10.506Z,98546.00
2018-12-09T00:59:38.763Z,98554.00
2018-12-09T01:02:09.151Z,98550.00
2018-12-09T01:04:37.594Z,98538.00
2018-12-09T01:07:06.149Z,98538.00
2018-12-09T01:09:34.667Z,98547.00
2018-12-09T01:12:03.315Z,98548.00
2018-12-09T01:14:31.695Z,98537.00
2018-12-09T01:16:59.985Z,98530.00
2018-12-09T01:19:28.228Z,98560.00
2018-12-09T01:21:56.693Z,98553.00
2018-12-09T01:24:24.987Z,98565.00
2018-12-09T01:26:53.417Z,98557.00
2018-12-09T01:29:21.926Z,98540.00
2018-12-09T01:31:50.005Z,98549.00
2018-12-09T01:34:18.383Z,98558.00
2018-12-09T01:36:46.889Z,98553.00
2018-12-09T01:39:14.953Z,98554.00
2018-12-09T01:41:43.181Z,98540.00
2018-12-09T01:44:11.336Z,98524.00
2018-12-09T01:46:39.612Z,98544.00
2018-12-09T01:49:07.684Z,98547.00
2018-12-09T01:51:35.857Z,98551.00
2018-12-09T01:54:11.372Z,98556.00
2018-12-09T01:56:40.339Z,98544.00
2018-12-09T01:59:08.610Z,98540.00
2018-12-09T02:01:36.899Z,98548.00
2018-12-09T02:04:05.249Z,98548.00
2018-12-09T02:06:34.038Z,98561.00
2018-12-09T02:09:03.880Z,98567.00
2018-12-09T02:11:33.249Z,98544.00
2018-12-09T02:14:01.460Z,98555.00
2018-12-09T02:16:29.789Z,98557.00
2018-12-09T02:19:18.639Z,98551.00
2018-12-09T02:21:47.013Z,98562.00
2018-12-09T02:24:16.211Z,98567.00
2018-12-09T02:26:44.361Z,98560.00
2018-12-09T02:29:12.521Z,98561.00
2018-12-09T02:31:41.111Z,98555.00
2018-12-09T02:34:09.404Z,98548.00
2018-12-09T02:36:37.672Z,98560.00
2018-12-09T02:39:08.156Z,98561.00
2018-12-09T02:41:36.435Z,98553.00
2018-12-09T02:44:04.886Z,98547.00
2018-12-09T02:46:33.117Z,98560.00
2018-12-09T02:49:01.576Z,98546.00
2018-12-09T02:51:30.160Z,98549.00
2018-12-09T02:53:58.392Z,98554.00
2018-12-09T02:56:26.483Z,98550.00
2018-12-09T02:58:54.916Z,98516.00
2018-12-09T03:01:23.078Z,98547.00
2018-12-09T03:03:51.298Z,98552.00
2018-12-09T03:06:19.381Z,98560.00
2018-12-09T03:08:47.713Z,98562.00
2018-12-09T03:11:16.785Z,98552.00
2018-12-09T03:13:44.994Z,98554.00
2018-12-09T03:16:13.178Z,98553.00
2018-12-09T03:18:41.422Z,98567.00
2018-12-09T03:21:09.916Z,98582.00
2018-12-09T03:23:38.052Z,98574.00
2018-12-09T03:26:06.697Z,98571.00
2018-12-09T03:28:35.056Z,98583.00
2018-12-09T03:31:03.398Z,98511.00
2018-12-09T03:33:31.686Z,98567.00
2018-12-09T03:35:59.996Z,98598.00
2018-12-09T03:54:33.921Z,98605.00
2018-12-09T03:57:02.378Z,98617.00
2018-12-09T03:59:30.674Z,98616.00
2018-12-09T04:01:58.859Z,98613.00
2018-12-09T04:04:27.178Z,98622.00
2018-12-09T04:06:55.399Z,98626.00
2018-12-09T04:09:23.559Z,98617.00
2018-12-09T04:11:51.757Z,98625.00
2018-12-09T04:14:19.829Z,98629.00
2018-12-09T04:16:48.380Z,98621.00
2018-12-09T04:19:17.081Z,98631.00
2018-12-09T04:21:45.181Z,98629.00
2018-12-09T04:24:13.370Z,98616.00
2018-12-09T04:26:41.545Z,98624.00
2018-12-09T04:29:09.832Z,98623.00
2018-12-09T04:31:37.947Z,98615.00
2018-12-09T04:34:06.201Z,98621.00
2018-12-09T04:36:34.486Z,98631.00
2018-12-09T04:39:05.561Z,98623.00
2018-12-09T04:41:33.731Z,98632.00
2018-12-09T04:44:01.874Z,98633.00
2018-12-09T04:46:29.960Z,98621.00
2018-12-09T04:48:58.157Z,98629.00
2018-12-09T04:51:42.033Z,98628.00
2018-12-09T04:54:10.243Z,98626.00
2018-12-09T04:56:38.486Z,98616.00
2018-12-09T04:59:16.466Z,98614.00
2018-12-09T05:01:45.141Z,98614.00
2018-12-09T05:04:13.507Z,98633.00
2018-12-09T05:06:41.785Z,98648.00
2018-12-09T05:09:09.874Z,98657.00
2018-12-09T05:11:38.032Z,98659.00
2018-12-09T05:14:06.529Z,98666.00
2018-12-09T05:16:34.808Z,98675.00
2018-12-09T05:19:03.374Z,98685.00
2018-12-09T05:21:31.746Z,98684.00
2018-12-09T05:23:59.921Z,98687.00
2018-12-09T05:26:27.991Z,98691.00
2018-12-09T05:28:56.159Z,98693.00
2018-12-09T05:31:24.280Z,98689.00
2018-12-09T05:33:52.573Z,98689.00
2018-12-09T05:36:20.827Z,98692.00
2018-12-09T05:38:49.128Z,98692.00
2018-12-09T05:41:17.456Z,98697.00
2018-12-09T05:43:46.224Z,98700.00
2018-12-09T05:46:14.785Z,98713.00
2018-12-09T05:48:43.198Z,98703.00
2018-12-09T05:51:11.327Z,98698.00
2018-12-09T05:53:39.569Z,98701.00
2018-12-09T05:56:07.742Z,98687.00
2018-12-09T05:58:36.006Z,98706.00
2018-12-09T06:01:04.293Z,98709.00
2018-12-09T06:03:32.630Z,98709.00
2018-12-09T06:06:00.725Z,98713.00
2018-12-09T06:08:28.997Z,98713.00
2018-12-09T06:10:57.186Z,98725.00
2018-12-09T06:13:25.969Z,98730.00
2018-12-09T06:15:54.113Z,98731.00
2018-12-09T06:18:22.317Z,98740.00
2018-12-09T06:20:50.617Z,98746.00
2018-12-09T06:23:18.830Z,98748.00
2018-12-09T06:25:47.233Z,98743.00
2018-12-09T06:28:15.336Z,98742.00
2018-12-09T06:30:43.555Z,98758.00
2018-12-09T06:33:11.680Z,98754.00
2018-12-09T06:35:39.754Z,98763.00
2018-12-09T06:38:08.067Z,98762.00
2018-12-09T06:40:36.461Z,98769.00
2018-12-09T06:43:04.653Z,98759.00
2018-12-09T06:45:32.709Z,98778.00
2018-12-09T06:48:00.830Z,98761.00
2018-12-09T06:50:29.167Z,98768.00
2018-12-09T06:52:57.398Z,98761.00
2018-12-09T06:55:25.503Z,98769.00
2018-12-09T06:57:53.604Z,98765.00
2018-12-09T07:00:21.958Z,98764.00
2018-12-09T07:02:50.595Z,98776.00
2018-12-09T07:05:18.886Z,98768.00
2018-12-09T07:07:47.052Z,98763.00
2018-12-09T07:10:15.402Z,98778.00
2018-12-09T07:12:43.671Z,98774.00
2018-12-09T07:15:12.267Z,98779.00
2018-12-09T07:17:40.527Z,98783.00
2018-12-09T07:20:09.013Z,98776.00
2018-12-09T07:22:36.993Z,98793.00
2018-12-09T07:25:05.637Z,98802.00
2018-12-09T07:27:34.318Z,98811.00
2018-12-09T07:30:02.905Z,98813.00
2018-12-09T07:32:31.077Z,98819.00
2018-12-09T07:34:59.189Z,98810.00
2018-12-09T07:37:27.258Z,98829.00
2018-12-09T07:39:55.774Z,98826.00
2018-12-09T07:42:23.831Z,98838.00
2018-12-09T07:44:51.954Z,98837.00
2018-12-09T07:47:20.119Z,98844.00
2018-12-09T07:49:48.246Z,98845.00
2018-12-09T07:52:16.563Z,98854.00
2018-12-09T07:54:44.641Z,98846.00
2018-12-09T07:57:12.691Z,98844.00
2018-12-09T07:59:40.785Z,98851.00
2018-12-09T08:02:09.007Z,98864.00
2018-12-09T08:04:37.145Z,98870.00
2018-12-09T08:07:05.431Z,98868.00
2018-12-09T08:09:33.554Z,98873.00
2018-12-09T08:12:01.695Z,98870.00
2018-12-09T08:14:29.855Z,98881.00
2018-12-09T08:16:57.950Z,98882.00
2018-12-09T08:19:26.013Z,98880.00
2018-12-09T08:21:54.231Z,98891.00
2018-12-09T08:24:22.352Z,98895.00
2018-12-09T08:26:50.507Z,98897.00
2018-12-09T08:29:18.652Z,98901.00
2018-12-09T08:31:46.778Z,98903.00
2018-12-09T08:34:14.909Z,98913.00
2018-12-09T08:36:43.099Z,98910.00
2018-12-09T08:39:11.214Z,98915.00
2018-12-09T08:41:39.788Z,98914.00
2018-12-09T08:44:07.893Z,98906.00
2018-12-09T08:46:36.064Z,98909.00
2018-12-09T08:49:04.137Z,98920.00
2018-12-09T08:51:32.399Z,98927.00
2018-12-09T08:54:02.763Z,98929.00
2018-12-09T08:56:31.031Z,98922.00
2018-12-09T08:58:59.230Z,98936.00
2018-12-09T09:01:27.446Z,98945.00
2018-12-09T09:03:55.679Z,98919.00
2018-12-09T09:06:23.787Z,98938.00
2018-12-09T09:08:52.085Z,98945.00
2018-12-09T09:11:20.462Z,98925.00
2018-12-09T09:13:48.607Z,98937.00
2018-12-09T09:16:16.735Z,98935.00
2018-12-09T09:18:44.844Z,98923.00
2018-12-09T09:21:12.983Z,98847.00
2018-12-09T09:23:41.227Z,98941.00
2018-12-09T09:26:09.446Z,98942.00
2018-12-09T09:28:37.619Z,98952.00
2018-12-09T09:31:05.730Z,98957.00
2018-12-09T09:33:33.923Z,98950.00
2018-12-09T09:36:02.329Z,98961.00
2018-12-09T09:38:30.469Z,98947.00
2018-12-09T09:43:38.078Z,98948.00
2018-12-09T09:46:06.253Z,98946.00
2018-12-09T09:48:34.453Z,98967.00
2018-12-09T09:51:03.010Z,98959.00
2018-12-09T09:53:31.327Z,98962.00
2018-12-09T09:55:59.753Z,98968.00
2018-12-09T09:58:28.011Z,98960.00
2018-12-09T10:00:56.295Z,98956.00
2018-12-09T10:03:25.966Z,98959.00
2018-12-09T10:05:54.687Z,98965.00
2018-12-09T10:08:23.009Z,98970.00
2018-12-09T10:10:51.363Z,98978.00
2018-12-09T10:13:19.970Z,98961.00
2018-12-09T10:15:48.222Z,98971.00
2018-12-09T10:18:16.356Z,98966.00
2018-12-09T10:20:44.674Z,98968.00
2018-12-09T10:23:12.905Z,98968.00
2018-12-09T10:25:41.035Z,98973.00
2018-12-09T10:28:09.195Z,98974.00
2018-12-09T10:30:37.366Z,98963.00
2018-12-09T10:33:05.639Z,98969.00
2018-12-09T10:35:34.220Z,98975.00
2018-12-09T10:38:02.494Z,98965.00
2018-12-09T10:40:30.710Z,98963.00
2018-12-09T10:42:58.882Z,98972.00
2018-12-09T10:45:27.091Z,98972.00
2018-12-09T10:47:55.606Z,98964.00
2018-12-09T10:50:23.763Z,98972.00
2018-12-09T10:52:52.208Z,98962.00
2018-12-09T10:55:20.373Z,98968.00
2018-12-09T10:57:48.597Z,98974.00
2018-12-09T11:00:21.400Z,98957.00
2018-12-09T11:02:49.637Z,98959.00
2018-12-09T11:05:17.800Z,98968.00
2018-12-09T11:07:46.049Z,98972.00
2018-12-09T11:10:14.304Z,98968.00
2018-12-09T11:12:42.474Z,98968.00
2018-12-09T11:15:10.570Z,98970.00
2018-12-09T11:17:38.725Z,98962.00
2018-12-09T11:20:07.070Z,98968.00
2018-12-09T11:22:35.309Z,98967.00
2018-12-09T11:25:04.176Z,98971.00
2018-12-09T11:27:32.418Z,98966.00
2018-12-09T11:30:00.568Z,98970.00
2018-12-09T11:32:28.882Z,98973.00
2018-12-09T11:34:57.040Z,98960.00
2018-12-09T11:37:25.181Z,98958.00
2018-12-09T11:39:53.520Z,98962.00
2018-12-09T11:42:21.704Z,98962.00
2018-12-09T11:44:49.891Z,98968.00
2018-12-09T11:47:18.123Z,98957.00
2018-12-09T11:49:46.289Z,98961.00
2018-12-09T11:52:14.607Z,98952.00
2018-12-09T11:54:42.923Z,98952.00
2018-12-09T11:57:11.913Z,98959.00
2018-12-09T11:59:40.787Z,98966.00
2018-12-09T12:02:08.969Z,98960.00
2018-12-09T12:04:37.201Z,98961.00
2018-12-09T12:07:05.401Z,98964.00
2018-12-09T12:09:33.727Z,98960.00
2018-12-09T12:12:01.988Z,98967.00
2018-12-09T12:14:30.368Z,98957.00
2018-12-09T12:16:58.613Z,98962.00
2018-12-09T12:19:26.802Z,98965.00
2018-12-09T12:21:55.494Z,98967.00
2018-12-09T12:24:23.634Z,98967.00
2018-12-09T12:26:51.900Z,98955.00
2018-12-09T12:29:20.091Z,98957.00
2018-12-09T12:31:48.400Z,98951.00
2018-12-09T12:34:16.714Z,98949.00
2018-12-09T12:36:44.878Z,98955.00
2018-12-09T12:39:13.096Z,98947.00
2018-12-09T12:41:41.342Z,98958.00
2018-12-09T12:44:09.766Z,98964.00
2018-12-09T12:46:38.032Z,98957.00
2018-12-09T12:49:06.380Z,98963.00
2018-12-09T12:51:34.848Z,98953.00
2018-12-09T12:54:03.158Z,98956.00
2018-12-09T12:56:31.543Z,98946.00
2018-12-09T12:58:59.840Z,98962.00
2018-12-09T13:01:28.101Z,98963.00
2018-12-09T13:03:56.414Z,98978.00
2018-12-09T13:06:25.471Z,98968.00
2018-12-09T13:08:53.858Z,98971.00
2018-12-09T13:11:22.195Z,98968.00
2018-12-09T13:13:50.412Z,98972.00
2018-12-09T13:16:18.655Z,98981.00
2018-12-09T13:18:46.891Z,98991.00
2018-12-09T13:21:15.114Z,98993.00
2018-12-09T13:23:43.392Z,99000.00
2018-12-09T13:26:11.947Z,98999.00
2018-12-09T13:28:40.201Z,99008.00
2018-12-09T13:31:08.432Z,99025.00
2018-12-09T13:33:36.982Z,99031.00
2018-12-09T13:36:06.935Z,99037.00
2018-12-09T13:38:35.231Z,99056.00
2018-12-09T13:41:03.660Z,99061.00
2018-12-09T13:43:32.103Z,99078.00
2018-12-09T13:46:01.014Z,99094.00
2018-12-09T13:48:30.201Z,99096.00
2018-12-09T13:50:58.859Z,99099.00
2018-12-09T13:53:27.432Z,99096.00
2018-12-09T13:55:56.078Z,99078.00
2018-12-09T13:58:24.598Z,99084.00
2018-12-09T14:00:53.178Z,99102.00
2018-12-09T14:03:21.903Z,99099.00
2018-12-09T14:05:50.280Z,99105.00
2018-12-09T14:08:18.594Z,99105.00
2018-12-09T14:10:46.838Z,99113.00
2018-12-09T14:13:15.046Z,99112.00
2018-12-09T14:15:43.243Z,99113.00
2018-12-09T14:18:11.617Z,99128.00
2018-12-09T14:20:39.852Z,99126.00
2018-12-09T14:23:08.369Z,99131.00
2018-12-09T14:25:36.632Z,99131.00
2018-12-09T14:28:04.916Z,99127.00
2018-12-09T14:30:33.332Z,99134.00
2018-12-09T14:33:01.813Z,99141.00
2018-12-09T14:35:29.985Z,99143.00
2018-12-09T14:37:58.251Z,99149.00
2018-12-09T14:40:26.448Z,99156.00
2018-12-09T14:42:54.685Z,99150.00
2018-12-09T14:45:23.115Z,99154.00
2018-12-09T14:47:51.366Z,99164.00
2018-12-09T14:50:22.379Z,99171.00
2018-12-09T14:52:50.676Z,99178.00
2018-12-09T14:55:18.865Z,99171.00
2018-12-09T14:57:47.165Z,99182.00
2018-12-09T15:00:15.577Z,99173.00
2018-12-09T15:02:43.810Z,99180.00
2018-12-09T15:05:12.117Z,99185.00
2018-12-09T15:07:41.297Z,99198.00
2018-12-09T15:10:09.797Z,99203.00
2018-12-09T15:12:38.336Z,99214.00
2018-12-09T15:15:07.136Z,99214.00
2018-12-09T15:17:35.531Z,99226.00
2018-12-09T15:20:04.544Z,99223.00
2018-12-09T15:22:32.764Z,99237.00
2018-12-09T15:25:01.314Z,99255.00
2018-12-09T15:27:29.726Z,99254.00
2018-12-09T15:29:58.004Z,99268.00
2018-12-09T15:32:26.158Z,99275.00
2018-12-09T15:34:54.595Z,99289.00
2018-12-09T15:37:22.825Z,99306.00
2018-12-09T15:39:51.199Z,99307.00
2018-12-09T15:42:19.430Z,99316.00
2018-12-09T15:44:47.750Z,99313.00
2018-12-09T15:47:16.125Z,99321.00
2018-12-09T15:49:44.560Z,99330.00
2018-12-09T15:52:13.179Z,99329.00
2018-12-09T15:54:41.681Z,99207.00
2018-12-09T15:57:09.906Z,99338.00
2018-12-09T15:59:38.253Z,99344.00
2018-12-09T16:02:06.599Z,99354.00
2018-12-09T16:04:35.126Z,99358.00
2018-12-09T16:07:03.623Z,99354.00
2018-12-09T16:09:32.670Z,99353.00
2018-12-09T16:12:01.165Z,99362.00
2018-12-09T16:14:29.701Z,99369.00
2018-12-09T16:16:58.066Z,99368.00
2018-12-09T16:19:26.298Z,99367.00
2018-12-09T16:21:54.588Z,99391.00
2018-12-09T16:24:22.994Z,99404.00
2018-12-09T16:26:51.580Z,99420.00
2018-12-09T16:29:19.927Z,99415.00
2018-12-09T16:31:48.892Z,99418.00
2018-12-09T16:34:17.293Z,99425.00
2018-12-09T16:36:45.923Z,99428.00
2018-12-09T16:39:14.221Z,99450.00
2018-12-09T16:41:42.760Z,99427.00
2018-12-09T16:44:11.227Z,99437.00
2018-12-09T16:46:40.043Z,99433.00
2018-12-09T16:49:08.404Z,99441.00
2018-12-09T16:51:36.771Z,99436.00
2018-12-09T16:54:05.274Z,99454.00
2018-12-09T16:56:33.566Z,99460.00
2018-12-09T16:59:01.903Z,99456.00
2018-12-09T17:01:30.527Z,99475.00
2018-12-09T17:03:58.798Z,99465.00
2018-12-09T17:06:27.207Z,99472.00
2018-12-09T17:08:55.562Z,99480.00
2018-12-09T17:11:23.799Z,99488.00
2018-12-09T17:13:52.138Z,99495.00
2018-12-09T17:16:20.514Z,99491.00
2018-12-09T17:18:49.656Z,99499.00
2018-12-09T17:21:18.011Z,99490.00
2018-12-09T17:23:46.381Z,99497.00
2018-12-09T17:26:14.682Z,99501.00
2018-12-09T17:28:43.587Z,99512.00
2018-12-09T17:31:12.561Z,99517.00
2018-12-09T17:33:40.955Z,99523.00
2018-12-09T17:36:09.300Z,99536.00
2018-12-09T17:38:37.536Z,99543.00
2018-12-09T17:41:05.797Z,99552.00
2018-12-09T17:43:34.123Z,99553.00
2018-12-09T17:46:02.412Z,99566.00
2018-12-09T17:48:30.855Z,99577.00
2018-12-09T17:50:59.076Z,99585.00
2018-12-09T17:53:27.431Z,99572.00
2018-12-09T17:55:55.826Z,99575.00
2018-12-09T17:58:24.229Z,99585.00
2018-12-09T18:00:52.811Z,99585.00
2018-12-09T18:03:21.236Z,99593.00
2018-12-09T18:05:49.552Z,99589.00
2018-12-09T18:08:17.896Z,99606.00
2018-12-09T18:10:46.183Z,99607.00
2018-12-09T18:13:14.613Z,99612.00
2018-12-09T18:15:45.051Z,99623.00
2018-12-09T18:18:13.386Z,99612.00
2018-12-09T18:20:41.631Z,99630.00
2018-12-09T18:23:09.919Z,99640.00
2018-12-09T18:25:38.414Z,99649.00
2018-12-09T18:28:06.677Z,99644.00
2018-12-09T18:30:35.140Z,99651.00
2018-12-09T18:33:03.406Z,99658.00
2018-12-09T18:35:31.824Z,99664.00
2018-12-09T18:38:00.131Z,99668.00
2018-12-09T18:40:28.644Z,99676.00
2018-12-09T18:42:57.065Z,99666.00
2018-12-09T18:45:25.616Z,99674.00
2018-12-09T18:47:53.895Z,99686.00
2018-12-09T18:50:22.261Z,99684.00
2018-12-09T18:52:50.580Z,99696.00
2018-12-09T18:55:21.195Z,99690.00
2018-12-09T18:57:49.439Z,99712.00
2018-12-09T19:00:17.879Z,99715.00
2018-12-09T19:02:46.342Z,99722.00
2018-12-09T19:05:14.702Z,99735.00
2018-12-09T19:07:43.426Z,99731.00
2018-12-09T19:10:13.997Z,99728.00
2018-12-09T19:12:42.409Z,99730.00
2018-12-09T19:15:11.410Z,99741.00
2018-12-09T19:17:40.003Z,99738.00
2018-12-09T19:20:08.661Z,99756.00
2018-12-09T19:22:37.067Z,99740.00
2018-12-09T19:25:06.290Z,99745.00
2018-12-09T19:27:35.007Z,99748.00
2018-12-09T19:30:03.894Z,99743.00
2018-12-09T19:32:32.246Z,99768.00
2018-12-09T19:35:01.320Z,99764.00
2018-12-09T19:37:29.655Z,99782.00
2018-12-09T19:39:57.929Z,99789.00
2018-12-09T19:42:26.229Z,99776.00
2018-12-09T19:44:54.512Z,99795.00
2018-12-09T19:47:22.836Z,99802.00
2018-12-09T19:49:51.015Z,99790.00
2018-12-09T19:52:19.319Z,99805.00
2018-12-09T19:54:47.576Z,99818.00
2018-12-09T19:57:15.932Z,99823.00
2018-12-09T19:59:44.269Z,99827.00
2018-12-09T20:02:12.768Z,99843.00
2018-12-09T20:04:41.199Z,99839.00
2018-12-09T20:07:09.717Z,99841.00
2018-12-09T20:09:38.202Z,99858.00
2018-12-09T20:12:06.800Z,99855.00
2018-12-09T20:14:35.092Z,99866.00
2018-12-09T20:17:03.457Z,99881.00
2018-12-09T20:19:31.734Z,99874.00
2018-12-09T20:22:00.291Z,99865.00
2018-12-09T20:24:28.750Z,99882.00
2018-12-09T20:26:57.162Z,99896.00
2018-12-09T20:29:25.439Z,99903.00
2018-12-09T20:31:53.855Z,99914.00
2018-12-09T20:34:22.106Z,99926.00
2018-12-09T20:36:50.647Z,99923.00
2018-12-09T20:39:19.057Z,99931.00
2018-12-09T20:41:47.249Z,99941.00
2018-12-09T20:44:15.593Z,99951.00
2018-12-09T20:46:43.907Z,99958.00
2018-12-09T20:49:12.313Z,99955.00
2018-12-09T20:51:40.524Z,99966.00
2018-12-09T20:54:09.363Z,99973.00
2018-12-09T20:56:37.719Z,99986.00
2018-12-09T20:59:06.002Z,99993.00
2018-12-09T21:01:34.371Z,99993.00
2018-12-09T21:04:02.664Z,100009.00
2018-12-09T21:06:31.310Z,100017.00
2018-12-09T21:08:59.605Z,100017.00
2018-12-09T21:11:27.925Z,100018.00
2018-12-09T21:13:56.151Z,100026.00
2018-12-09T21:16:24.382Z,100038.00
2018-12-09T21:18:52.569Z,100031.00
2018-12-09T21:21:20.896Z,100039.00
2018-12-09T21:23:49.218Z,100045.00
2018-12-09T21:26:17.732Z,100042.00
2018-12-09T21:28:46.017Z,100052.00
2018-12-09T21:31:14.368Z,100065.00
2018-12-09T21:33:42.622Z,100074.00
2018-12-09T21:36:10.937Z,100084.00
2018-12-09T21:38:39.556Z,100080.00
2018-12-09T21:41:07.986Z,100089.00
2018-12-09T21:43:36.172Z,100096.00
2018-12-09T21:46:04.646Z,100097.00
2018-12-09T21:48:32.878Z,100101.00
2018-12-09T21:51:01.172Z,100096.00
2018-12-09T21:53:29.501Z,100100.00
2018-12-09T21:55:57.704Z,100107.00
2018-12-09T21:58:26.021Z,100105.00
2018-12-09T22:00:54.231Z,100109.00
2018-12-09T22:03:22.364Z,100113.00
2018-12-09T22:05:50.690Z,100121.00
2018-12-09T22:08:19.018Z,100140.00
2018-12-09T22:10:47.530Z,100138.00
2018-12-09T22:13:15.975Z,100147.00
2018-12-09T22:15:44.080Z,100134.00
2018-12-09T22:18:12.253Z,100147.00
2018-12-09T22:20:40.668Z,100154.00
2018-12-09T22:23:08.901Z,100161.00
2018-12-09T22:25:37.064Z,100154.00
2018-12-09T22:28:05.201Z,100168.00
2018-12-09T22:30:33.352Z,100186.00
2018-12-09T22:33:01.546Z,100185.00
2018-12-09T22:35:29.752Z,100172.00
2018-12-09T22:37:58.393Z,100190.00
2018-12-09T22:40:26.525Z,100195.00
2018-12-09T22:42:54.849Z,100201.00
2018-12-09T22:45:22.948Z,100191.00
2018-12-09T22:47:51.344Z,100196.00
2018-12-09T22:50:20.308Z,100209.00
2018-12-09T22:52:48.422Z,100202.00
2018-12-09T22:55:16.658Z,100214.00
2018-12-09T22:57:44.900Z,100218.00
2018-12-09T23:00:23.426Z,100212.00
2018-12-09T23:02:57.682Z,100224.00
2018-12-09T23:05:25.910Z,100224.00
2018-12-09T23:07:54.887Z,100216.00
2018-12-09T23:10:23.085Z,100224.00
2018-12-09T23:12:51.276Z,100236.00
2018-12-09T23:15:19.604Z,100237.00
2018-12-09T23:17:47.976Z,100236.00
2018-12-09T23:20:16.360Z,100235.00
2018-12-09T23:22:44.518Z,100235.00
2018-12-09T23:25:12.663Z,100240.00
2018-12-09T23:27:40.821Z,100246.00
2018-12-09T23:30:10.070Z,100259.00
2018-12-09T23:32:38.253Z,100254.00
2018-12-09T23:35:07.666Z,100270.00
2018-12-09T23:37:35.993Z,100266.00
2018-12-09T23:40:06.905Z,100265.00
2018-12-09T23:42:35.275Z,100267.00
2018-12-09T23:45:04.547Z,100280.00
2018-12-09T23:47:32.955Z,100278.00
2018-12-09T23:50:01.980Z,100282.00
2018-12-09T23:52:30.212Z,100288.00
2018-12-09T23:54:58.897Z,100286.00
2018-12-09T23:57:27.058Z,100288.00
2018-12-09T23:59:55.244Z,100284.00
